Time,TemperatureF,DewpointF,PressureIn,WindDirection,WindDirectionDegrees,WindSpeedMPH,WindSpeedGustMPH,Humidity,HourlyPrecipIn,Conditions,Clouds,dailyrainin,SoftwareType,DateUTC
2017-11-21 00:05:00,41.1,35.7,29.98,South,183,0.0,0.0,81,0.00,,CLR,0.00,VWS V15.00,2017-11-21 07:05:00,
2017-11-21 00:10:00,41.1,35.7,29.98,South,183,0.0,0.0,81,0.00,,CLR,0.00,VWS V15.00,2017-11-21 07:10:00,
2017-11-21 00:15:00,41.1,36.0,29.98,South,183,0.0,0.0,82,0.00,,CLR,0.00,VWS V15.00,2017-11-21 07:15:00,
2017-11-21 00:20:00,41.0,37.1,29.97,South,183,1.0,1.0,86,0.00,,CLR,0.00,VWS V15.00,2017-11-21 07:20:00,
2017-11-21 00:25:00,41.0,35.9,29.97,South,183,2.0,3.0,82,0.00,,CLR,0.00,VWS V15.00,2017-11-21 07:25:00,
2017-11-21 00:30:00,40.9,35.8,29.97,South,183,1.0,2.0,82,0.00,,CLR,0.00,VWS V15.00,2017-11-21 07:30:00,
2017-11-21 00:35:00,40.7,35.6,29.97,South,183,2.0,3.0,82,0.00,,CLR,0.00,VWS V15.00,2017-11-21 07:35:00,
2017-11-21 00:40:00,40.4,35.3,29.97,South,183,2.0,3.0,82,0.00,,CLR,0.00,VWS V15.00,2017-11-21 07:40:00,
2017-11-21 00:45:00,40.0,35.3,29.97,South,183,2.0,3.0,83,0.00,,CLR,0.00,VWS V15.00,2017-11-21 07:45:00,
2017-11-21 00:50:00,39.7,35.0,29.97,South,183,0.0,2.0,83,0.00,,CLR,0.00,VWS V15.00,2017-11-21 07:50:00,
2017-11-21 00:55:00,39.5,34.5,29.97,South,183,0.0,0.0,82,0.00,,CLR,0.00,VWS V15.00,2017-11-21 07:55:00,
2017-11-21 01:00:00,39.5,34.2,29.97,South,183,0.0,0.0,81,0.00,,CLR,0.00,VWS V15.00,2017-11-21 08:00:00,
2017-11-21 01:05:00,39.4,34.4,29.97,South,183,1.0,2.0,82,0.00,,CLR,0.00,VWS V15.00,2017-11-21 08:05:00,
2017-11-21 01:10:00,39.4,34.7,29.97,South,183,1.0,2.0,83,0.00,,CLR,0.00,VWS V15.00,2017-11-21 08:10:00,
2017-11-21 01:15:00,39.4,34.7,29.97,South,183,2.0,2.0,83,0.00,,CLR,0.00,VWS V15.00,2017-11-21 08:15:00,
2017-11-21 01:20:00,39.4,34.7,29.97,South,183,1.0,1.0,83,0.00,,CLR,0.00,VWS V15.00,2017-11-21 08:20:00,
2017-11-21 01:25:00,39.4,35.0,29.96,South,183,2.0,2.0,84,0.00,,CLR,0.00,VWS V15.00,2017-11-21 08:25:00,
2017-11-21 01:30:00,39.5,35.4,29.96,South,183,3.0,3.0,85,0.00,,CLR,0.00,VWS V15.00,2017-11-21 08:30:00,
2017-11-21 01:35:00,39.8,36.0,29.97,South,183,2.0,3.0,86,0.00,,CLR,0.00,VWS V15.00,2017-11-21 08:35:00,
2017-11-21 01:40:00,39.8,35.7,29.97,South,183,0.0,0.0,85,0.00,,CLR,0.00,VWS V15.00,2017-11-21 08:40:00,
2017-11-21 01:50:00,40.1,36.3,29.97,South,183,0.0,0.0,86,0.00,,CLR,0.00,VWS V15.00,2017-11-21 08:50:00,
2017-11-21 01:55:00,40.4,36.5,29.97,South,183,0.0,0.0,86,0.00,,CLR,0.00,VWS V15.00,2017-11-21 08:55:00,
2017-11-21 02:05:00,40.4,36.5,29.97,South,183,0.0,0.0,86,0.00,,CLR,0.00,VWS V15.00,2017-11-21 09:05:00,
2017-11-21 02:20:00,40.7,37.1,29.97,South,183,2.0,3.0,87,0.00,,CLR,0.00,VWS V15.00,2017-11-21 09:20:00,
2017-11-21 02:25:00,40.7,37.1,29.97,South,183,0.0,2.0,87,0.00,,CLR,0.00,VWS V15.00,2017-11-21 09:25:00,
2017-11-21 02:40:00,41.5,37.9,29.96,South,183,3.0,3.0,87,0.00,,CLR,0.00,VWS V15.00,2017-11-21 09:40:00,
2017-11-21 02:50:00,41.3,37.4,29.95,South,183,0.0,2.0,86,0.00,,CLR,0.00,VWS V15.00,2017-11-21 09:50:00,
2017-11-21 03:06:00,40.6,37.0,29.94,South,183,0.0,0.0,87,0.00,,CLR,0.00,VWS V15.00,2017-11-21 10:06:00,
2017-11-21 03:11:00,40.6,37.3,29.94,South,183,1.0,2.0,88,0.00,,CLR,0.00,VWS V15.00,2017-11-21 10:11:00,
2017-11-21 03:16:00,40.3,37.0,29.94,South,183,2.0,5.0,88,0.00,,CLR,0.00,VWS V15.00,2017-11-21 10:16:00,
2017-11-21 03:21:00,40.4,37.4,29.94,South,183,2.0,2.0,89,0.00,,CLR,0.00,VWS V15.00,2017-11-21 10:21:00,
2017-11-21 03:31:00,41.0,38.3,29.93,South,183,1.0,2.0,90,0.00,,CLR,0.00,VWS V15.00,2017-11-21 10:31:00,
2017-11-21 03:36:00,41.3,38.3,29.93,South,183,0.0,0.0,89,0.00,,CLR,0.00,VWS V15.00,2017-11-21 10:36:00,
2017-11-21 03:41:00,41.4,38.7,29.93,South,183,0.0,0.0,90,0.00,,CLR,0.00,VWS V15.00,2017-11-21 10:41:00,
2017-11-21 03:46:00,41.5,38.5,29.94,South,183,1.0,4.0,89,0.00,,CLR,0.00,VWS V15.00,2017-11-21 10:46:00,
2017-11-21 03:51:00,41.6,38.6,29.94,South,183,2.0,2.0,89,0.00,,CLR,0.00,VWS V15.00,2017-11-21 10:51:00,
2017-11-21 03:56:00,41.8,38.8,29.94,South,183,1.0,1.0,89,0.00,,CLR,0.00,VWS V15.00,2017-11-21 10:56:00,
2017-11-21 04:01:00,41.9,39.2,29.94,South,183,1.0,1.0,90,0.00,,CLR,0.00,VWS V15.00,2017-11-21 11:01:00,
2017-11-21 04:06:00,41.9,39.2,29.93,South,183,1.0,1.0,90,0.00,,CLR,0.00,VWS V15.00,2017-11-21 11:06:00,
2017-11-21 04:16:00,41.8,38.8,29.94,South,183,0.0,0.0,89,0.00,,CLR,0.00,VWS V15.00,2017-11-21 11:16:00,
2017-11-21 04:26:00,41.8,39.1,29.94,South,183,2.0,2.0,90,0.00,,CLR,0.00,VWS V15.00,2017-11-21 11:26:00,
2017-11-21 04:31:00,42.2,39.5,29.94,South,183,0.0,2.0,90,0.00,,CLR,0.00,VWS V15.00,2017-11-21 11:31:00,
2017-11-21 04:41:00,42.5,40.1,29.95,South,183,1.0,3.0,91,0.00,,CLR,0.00,VWS V15.00,2017-11-21 11:41:00,
2017-11-21 04:46:00,42.6,40.2,29.95,South,183,3.0,3.0,91,0.00,,CLR,0.00,VWS V15.00,2017-11-21 11:46:00,
2017-11-21 04:51:00,42.7,40.3,29.95,South,183,0.0,2.0,91,0.00,,CLR,0.00,VWS V15.00,2017-11-21 11:51:00,
2017-11-21 04:56:00,42.7,40.3,29.95,South,183,3.0,3.0,91,0.00,,CLR,0.00,VWS V15.00,2017-11-21 11:56:00,
2017-11-21 05:01:00,42.8,40.4,29.95,South,183,2.0,3.0,91,0.00,,CLR,0.00,VWS V15.00,2017-11-21 12:01:00,
2017-11-21 05:06:00,42.8,40.1,29.95,South,183,1.0,1.0,90,0.00,,CLR,0.00,VWS V15.00,2017-11-21 12:06:00,
2017-11-21 05:11:00,42.7,40.0,29.95,South,183,0.0,1.0,90,0.00,,CLR,0.00,VWS V15.00,2017-11-21 12:11:00,
2017-11-21 05:16:00,42.7,40.0,29.95,South,183,0.0,1.0,90,0.00,,CLR,0.00,VWS V15.00,2017-11-21 12:16:00,
2017-11-21 05:21:00,42.8,40.4,29.95,South,183,1.0,2.0,91,0.00,,CLR,0.00,VWS V15.00,2017-11-21 12:21:00,
2017-11-21 05:26:00,42.7,40.0,29.95,South,183,0.0,0.0,90,0.00,,CLR,0.00,VWS V15.00,2017-11-21 12:26:00,
2017-11-21 05:41:00,42.7,40.3,29.96,South,183,0.0,1.0,91,0.00,,CLR,0.00,VWS V15.00,2017-11-21 12:41:00,
2017-11-21 05:46:00,42.5,39.8,29.96,South,183,0.0,0.0,90,0.00,,CLR,0.00,VWS V15.00,2017-11-21 12:46:00,
2017-11-21 06:01:00,42.8,40.1,29.97,South,183,0.0,0.0,90,0.00,,CLR,0.00,VWS V15.00,2017-11-21 13:01:00,
2017-11-21 06:06:00,42.8,40.1,29.97,South,183,0.0,0.0,90,0.00,,CLR,0.00,VWS V15.00,2017-11-21 13:06:00,
2017-11-21 06:11:00,42.6,39.9,29.97,South,183,0.0,0.0,90,0.00,,CLR,0.00,VWS V15.00,2017-11-21 13:11:00,
2017-11-21 06:16:00,42.5,39.8,29.97,South,183,0.0,1.0,90,0.00,,CLR,0.00,VWS V15.00,2017-11-21 13:16:00,
2017-11-21 06:26:00,42.5,39.8,29.97,South,183,1.0,1.0,90,0.00,,CLR,0.00,VWS V15.00,2017-11-21 13:26:00,
2017-11-21 06:31:00,42.5,40.1,29.97,South,183,3.0,3.0,91,0.00,,CLR,0.00,VWS V15.00,2017-11-21 13:31:00,
2017-11-21 06:36:00,42.4,40.0,29.97,South,183,2.0,2.0,91,0.00,,CLR,0.00,VWS V15.00,2017-11-21 13:36:00,
2017-11-21 06:46:00,42.6,40.2,29.98,South,183,3.0,3.0,91,0.00,,CLR,0.00,VWS V15.00,2017-11-21 13:46:00,
2017-11-21 06:51:00,42.9,40.7,29.98,South,183,2.0,3.0,92,0.00,,CLR,0.00,VWS V15.00,2017-11-21 13:51:00,
2017-11-21 07:01:00,43.4,41.2,29.98,South,183,0.0,0.0,92,0.00,,CLR,0.00,VWS V15.00,2017-11-21 14:01:00,
2017-11-21 07:06:00,43.6,41.4,29.98,South,183,2.0,2.0,92,0.00,,CLR,0.00,VWS V15.00,2017-11-21 14:06:00,
2017-11-21 07:11:00,44.2,42.0,29.98,South,183,1.0,3.0,92,0.00,,CLR,0.00,VWS V15.00,2017-11-21 14:11:00,
2017-11-21 07:12:00,44.3,42.1,29.98,South,183,2.0,3.0,92,0.00,,CLR,0.00,VWS V15.00,2017-11-21 14:12:00,
2017-11-21 07:22:00,45.4,43.2,29.98,South,183,3.0,4.0,92,0.00,,CLR,0.00,VWS V15.00,2017-11-21 14:22:00,
2017-11-21 07:27:00,45.9,43.7,29.98,South,183,4.0,5.0,92,0.00,,CLR,0.00,VWS V15.00,2017-11-21 14:27:00,
2017-11-21 07:32:00,46.9,44.7,29.98,South,183,3.0,5.0,92,0.00,,CLR,0.00,VWS V15.00,2017-11-21 14:32:00,
2017-11-21 07:37:00,47.4,45.2,29.98,South,183,4.0,4.0,92,0.00,,CLR,0.00,VWS V15.00,2017-11-21 14:37:00,
2017-11-21 07:42:00,47.8,45.3,29.98,South,183,4.0,6.0,91,0.00,,CLR,0.00,VWS V15.00,2017-11-21 14:42:00,
2017-11-21 07:47:00,48.2,45.7,29.99,South,183,2.0,3.0,91,0.00,,CLR,0.00,VWS V15.00,2017-11-21 14:47:00,
2017-11-21 07:57:00,48.8,46.0,29.99,South,183,3.0,4.0,90,0.00,,BKN012,0.00,VWS V15.00,2017-11-21 14:57:00,
2017-11-21 08:02:00,49.1,46.3,29.99,South,183,4.0,4.0,90,0.00,,BKN012,0.00,VWS V15.00,2017-11-21 15:02:00,
2017-11-21 08:07:00,49.5,47.0,30.00,South,183,4.0,4.0,91,0.00,,CLR,0.00,VWS V15.00,2017-11-21 15:07:00,
2017-11-21 08:12:00,49.7,46.9,30.00,South,183,1.0,4.0,90,0.00,,BKN012,0.00,VWS V15.00,2017-11-21 15:12:00,
2017-11-21 08:17:00,49.8,47.0,30.00,South,182,5.0,6.0,90,0.00,,BKN012,0.00,VWS V15.00,2017-11-21 15:17:00,
2017-11-21 08:22:00,50.0,46.9,30.00,South,182,3.0,4.0,89,0.00,,BKN012,0.00,VWS V15.00,2017-11-21 15:22:00,
2017-11-21 08:27:00,50.2,47.4,30.00,South,182,3.0,3.0,90,0.00,,BKN012,0.00,VWS V15.00,2017-11-21 15:27:00,
2017-11-21 08:32:00,50.3,47.2,30.00,South,182,2.0,2.0,89,0.00,,BKN012,0.00,VWS V15.00,2017-11-21 15:32:00,
2017-11-21 08:37:00,50.3,47.2,30.00,South,182,2.0,2.0,89,0.00,,OVC012,0.00,VWS V15.00,2017-11-21 15:37:00,
2017-11-21 08:42:00,51.1,48.3,30.00,South,182,4.0,5.0,90,0.00,,OVC012,0.00,VWS V15.00,2017-11-21 15:42:00,
2017-11-21 08:47:00,51.9,48.8,30.00,South,182,4.0,5.0,89,0.00,,OVC012,0.00,VWS V15.00,2017-11-21 15:47:00,
2017-11-21 08:52:00,52.6,49.2,30.00,South,182,3.0,6.0,88,0.00,,OVC012,0.00,VWS V15.00,2017-11-21 15:52:00,
2017-11-21 08:57:00,52.7,49.0,30.00,South,179,6.0,7.0,87,0.00,,OVC012,0.00,VWS V15.00,2017-11-21 15:57:00,
2017-11-21 09:02:00,53.7,50.2,30.00,South,177,5.0,6.0,88,0.00,,OVC012,0.00,VWS V15.00,2017-11-21 16:02:00,
2017-11-21 09:07:00,54.0,49.9,30.00,South,174,3.0,6.0,86,0.00,,OVC012,0.00,VWS V15.00,2017-11-21 16:07:00,
2017-11-21 09:17:00,55.4,51.0,30.00,South,173,5.0,5.0,85,0.00,,OVC012,0.00,VWS V15.00,2017-11-21 16:17:00,
2017-11-21 09:22:00,56.2,51.8,30.00,South,173,1.0,6.0,85,0.00,,OVC012,0.00,VWS V15.00,2017-11-21 16:22:00,
2017-11-21 09:32:00,58.1,52.6,30.00,SSE,167,2.0,5.0,82,0.00,,OVC012,0.00,VWS V15.00,2017-11-21 16:32:00,
2017-11-21 09:37:00,58.4,52.3,30.00,SSE,165,2.0,6.0,80,0.00,,SCT010,0.00,VWS V15.00,2017-11-21 16:37:00,